createdAt,value
2018-07-21T00:02:05.471Z,17.30
2018-07-21T00:04:35.187Z,17.20
2018-07-21T00:07:04.612Z,17.10
2018-07-21T00:09:34.011Z,17.10
2018-07-21T00:12:03.731Z,17.00
2018-07-21T00:14:33.330Z,16.90
2018-07-21T00:17:02.670Z,16.90
2018-07-21T00:19:32.031Z,16.80
2018-07-21T00:22:01.310Z,16.90
2018-07-21T00:24:30.711Z,16.90
2018-07-21T00:27:00.012Z,16.90
2018-07-21T00:29:29.412Z,16.90
2018-07-21T00:31:58.950Z,16.80
2018-07-21T00:34:28.330Z,16.70
2018-07-21T00:36:57.670Z,16.70
2018-07-21T00:39:27.030Z,16.60
2018-07-21T00:41:56.371Z,16.50
2018-07-21T00:44:26.111Z,16.40
2018-07-21T00:46:55.471Z,16.30
2018-07-21T00:49:25.190Z,16.20
2018-07-21T00:54:23.573Z,16.10
2018-07-21T00:56:52.950Z,16.00
2018-07-21T00:59:22.291Z,16.00
2018-07-21T01:01:51.710Z,15.90
2018-07-21T01:04:21.090Z,16.00
2018-07-21T01:06:50.450Z,16.00
2018-07-21T01:09:19.852Z,16.00
2018-07-21T01:11:49.270Z,16.00
2018-07-21T01:14:18.611Z,15.90
2018-07-21T01:24:15.151Z,15.80
2018-07-21T01:26:44.530Z,15.80
2018-07-21T01:29:13.891Z,15.70
2018-07-21T01:31:43.271Z,15.70
2018-07-21T01:34:13.090Z,15.60
2018-07-21T01:36:42.630Z,15.60
2018-07-21T01:39:12.371Z,15.50
2018-07-21T01:41:41.711Z,15.50
2018-07-21T01:44:11.051Z,15.40
2018-07-21T01:46:40.370Z,15.30
2018-07-21T01:49:09.971Z,15.20
2018-07-21T01:51:39.411Z,15.10
2018-07-21T01:54:08.971Z,15.00
2018-07-21T01:56:38.410Z,15.00
2018-07-21T01:59:08.311Z,14.90
2018-07-21T02:01:37.611Z,14.90
2018-07-21T02:04:07.131Z,14.90
2018-07-21T02:06:36.512Z,14.90
2018-07-21T02:09:09.071Z,14.80
2018-07-21T02:11:38.751Z,14.80
2018-07-21T02:14:08.611Z,14.80
2018-07-21T02:16:38.017Z,14.80
2018-07-21T02:19:07.491Z,14.70
2018-07-21T02:21:36.953Z,14.70
2018-07-21T02:24:06.531Z,14.70
2018-07-21T02:26:36.331Z,14.60
2018-07-21T02:29:05.716Z,14.60
2018-07-21T02:31:35.411Z,14.70
2018-07-21T02:34:04.851Z,14.80
2018-07-21T02:36:34.081Z,14.80
2018-07-21T02:39:04.675Z,14.90
2018-07-21T02:41:34.138Z,14.90
2018-07-21T02:44:03.970Z,15.00
2018-07-21T02:46:33.538Z,15.00
2018-07-21T02:54:00.991Z,14.60
2018-07-21T02:56:30.350Z,14.60
2018-07-21T02:58:59.634Z,14.50
2018-07-21T03:01:28.990Z,14.50
2018-07-21T03:03:58.631Z,14.50
2018-07-21T03:06:28.051Z,14.50
2018-07-21T03:08:57.410Z,14.50
2018-07-21T03:11:26.650Z,14.50
2018-07-21T03:13:56.031Z,14.40
2018-07-21T03:16:25.355Z,14.50
2018-07-21T03:18:54.850Z,14.50
2018-07-21T03:21:24.811Z,14.50
2018-07-21T03:23:54.056Z,14.50
2018-07-21T03:26:23.490Z,14.50
2018-07-21T03:28:52.957Z,14.50
2018-07-21T03:31:22.432Z,14.50
2018-07-21T03:33:51.830Z,14.50
2018-07-21T03:36:21.257Z,14.60
2018-07-21T03:38:50.613Z,14.70
2018-07-21T03:41:19.871Z,14.80
2018-07-21T03:43:49.104Z,14.80
2018-07-21T03:46:18.430Z,14.90
2018-07-21T03:48:47.870Z,14.90
2018-07-21T03:53:46.330Z,15.00
2018-07-21T03:56:15.730Z,15.10
2018-07-21T03:58:45.011Z,15.10
2018-07-21T04:01:14.370Z,15.30
2018-07-21T04:03:43.831Z,15.50
2018-07-21T04:06:13.251Z,15.70
2018-07-21T04:08:42.610Z,15.90
2018-07-21T04:11:12.073Z,16.00
2018-07-21T04:13:41.531Z,16.20
2018-07-21T04:16:11.111Z,16.50
2018-07-21T04:18:40.751Z,16.80
2018-07-21T04:21:10.131Z,17.20
2018-07-21T04:23:40.031Z,17.70
2018-07-21T04:26:09.371Z,18.20
2018-07-21T04:28:38.751Z,18.60
2018-07-21T04:31:08.350Z,19.10
2018-07-21T04:33:37.670Z,19.50
2018-07-21T04:36:07.570Z,20.00
2018-07-21T04:38:37.391Z,20.40
2018-07-21T04:41:06.850Z,20.90
2018-07-21T04:43:36.231Z,21.30
2018-07-21T04:46:05.731Z,21.70
2018-07-21T04:48:35.051Z,21.90
2018-07-21T04:51:04.471Z,22.10
2018-07-21T04:53:33.850Z,22.30
2018-07-21T04:56:03.271Z,22.50
2018-07-21T04:58:32.850Z,22.80
2018-07-21T05:01:02.596Z,23.30
2018-07-21T05:03:31.950Z,23.90
2018-07-21T05:06:01.531Z,24.10
2018-07-21T05:08:30.970Z,24.20
2018-07-21T05:11:00.290Z,24.40
2018-07-21T05:13:29.830Z,24.50
2018-07-21T05:15:59.390Z,24.80
2018-07-21T05:18:28.950Z,25.20
2018-07-21T05:20:58.570Z,25.50
2018-07-21T05:23:27.930Z,26.10
2018-07-21T05:25:57.350Z,26.50
2018-07-21T05:28:27.150Z,26.80
2018-07-21T05:30:56.570Z,26.90
2018-07-21T05:33:26.063Z,27.20
2018-07-21T05:35:55.611Z,27.00
2018-07-21T05:38:25.104Z,26.90
2018-07-21T05:40:54.670Z,26.50
2018-07-21T05:43:24.151Z,25.40
2018-07-21T05:45:53.751Z,24.00
2018-07-21T05:50:52.519Z,22.30
2018-07-21T05:53:21.911Z,21.90
2018-07-21T05:55:51.451Z,21.60
2018-07-21T05:58:20.811Z,21.40
2018-07-21T06:00:50.356Z,21.30
2018-07-21T06:05:49.131Z,21.30
2018-07-21T06:08:18.372Z,21.30
2018-07-21T06:10:48.011Z,21.60
2018-07-21T06:13:17.452Z,22.10
2018-07-21T06:15:47.011Z,22.60
2018-07-21T06:18:16.633Z,22.90
2018-07-21T06:20:46.111Z,23.20
2018-07-21T06:23:15.532Z,23.40
2018-07-21T06:25:45.012Z,23.40
2018-07-21T06:28:14.354Z,23.60
2018-07-21T06:30:43.851Z,23.70
2018-07-21T06:33:13.371Z,23.80
2018-07-21T06:35:42.831Z,23.90
2018-07-21T06:38:12.351Z,24.00
2018-07-21T06:40:41.851Z,24.10
2018-07-21T06:43:11.389Z,24.20
2018-07-21T06:45:41.111Z,24.30
2018-07-21T06:48:10.611Z,24.40
2018-07-21T06:50:40.391Z,24.40
2018-07-21T06:53:09.751Z,24.40
2018-07-21T06:55:39.351Z,24.50
2018-07-21T06:58:08.831Z,24.60
2018-07-21T07:00:38.231Z,24.70
2018-07-21T07:03:07.551Z,24.70
2018-07-21T07:05:36.931Z,24.60
2018-07-21T07:08:06.574Z,24.50
2018-07-21T07:13:04.931Z,24.50
2018-07-21T07:15:34.271Z,24.40
2018-07-21T07:20:32.771Z,24.30
2018-07-21T07:23:02.134Z,24.20
2018-07-21T07:25:31.650Z,24.40
2018-07-21T07:28:00.971Z,24.60
2018-07-21T07:30:30.915Z,24.60
2018-07-21T07:33:00.396Z,24.70
2018-07-21T07:40:27.973Z,25.00
2018-07-21T07:42:57.331Z,25.30
2018-07-21T07:45:26.691Z,25.40
2018-07-21T07:50:25.131Z,25.40
2018-07-21T07:52:54.471Z,25.40
2018-07-21T07:55:24.651Z,25.30
2018-07-21T07:57:54.271Z,25.20
2018-07-21T08:00:23.705Z,25.10
2018-07-21T08:02:53.212Z,24.90
2018-07-21T08:07:51.631Z,24.80
2018-07-21T08:10:21.091Z,24.80
2018-07-21T08:12:51.111Z,24.70
2018-07-21T08:15:21.331Z,24.70
2018-07-21T08:17:51.151Z,24.70
2018-07-21T08:20:20.531Z,24.60
2018-07-21T08:22:49.971Z,24.80
2018-07-21T08:25:19.251Z,24.90
2018-07-21T08:27:48.691Z,25.20
2018-07-21T08:30:18.031Z,25.30
2018-07-21T08:32:47.594Z,25.40
2018-07-21T08:35:17.411Z,25.30
2018-07-21T08:37:47.330Z,25.40
2018-07-21T08:40:16.951Z,25.40
2018-07-21T08:42:46.372Z,25.50
2018-07-21T08:45:15.912Z,25.60
2018-07-21T08:47:45.411Z,25.40
2018-07-21T08:50:14.932Z,25.40
2018-07-21T08:52:44.431Z,25.20
2018-07-21T08:55:13.891Z,25.30
2018-07-21T08:57:43.432Z,25.40
2018-07-21T09:00:12.915Z,25.60
2018-07-21T09:02:42.251Z,25.50
2018-07-21T09:05:11.691Z,25.30
2018-07-21T09:07:41.051Z,25.60
2018-07-21T09:10:10.871Z,25.80
2018-07-21T09:12:40.351Z,26.10
2018-07-21T09:15:09.717Z,26.60
2018-07-21T09:17:39.131Z,26.90
2018-07-21T09:20:08.612Z,27.20
2018-07-21T09:22:38.055Z,27.40
2018-07-21T09:25:08.771Z,27.90
2018-07-21T09:27:38.371Z,28.10
2018-07-21T09:30:07.892Z,28.10
2018-07-21T09:32:37.211Z,28.20
2018-07-21T09:35:06.571Z,27.90
2018-07-21T09:37:36.151Z,27.80
2018-07-21T09:40:06.295Z,27.50
2018-07-21T09:42:35.971Z,27.20
2018-07-21T09:45:06.031Z,26.90
2018-07-21T09:47:35.352Z,26.50
2018-07-21T09:50:06.491Z,26.20
2018-07-21T09:52:35.953Z,26.00
2018-07-21T09:55:06.931Z,25.80
2018-07-21T09:57:36.723Z,25.70
2018-07-21T10:00:10.526Z,25.60
2018-07-21T10:02:39.844Z,25.50
2018-07-21T10:05:09.464Z,25.50
2018-07-21T10:07:38.924Z,25.30
2018-07-21T10:10:08.244Z,25.30
2018-07-21T10:12:37.684Z,25.20
2018-07-21T10:15:07.265Z,25.20
2018-07-21T10:17:36.645Z,25.20
2018-07-21T10:20:06.531Z,25.20
2018-07-21T10:22:36.328Z,25.20
2018-07-21T10:25:11.287Z,25.30
2018-07-21T10:27:45.925Z,25.30
2018-07-21T10:30:15.380Z,25.20
2018-07-21T10:32:44.805Z,25.00
2018-07-21T10:37:43.225Z,24.70
2018-07-21T10:40:12.585Z,24.60
2018-07-21T10:42:42.645Z,24.60
2018-07-21T10:45:12.085Z,24.60
2018-07-21T10:47:41.188Z,24.40
2018-07-21T10:50:10.324Z,24.40
2018-07-21T10:52:39.744Z,24.50
2018-07-21T10:55:09.184Z,24.50
2018-07-21T10:57:38.884Z,24.30
2018-07-21T11:00:08.653Z,24.20
2018-07-21T11:02:38.046Z,24.10
2018-07-21T11:05:09.352Z,24.00
2018-07-21T11:07:38.985Z,23.90
2018-07-21T11:10:08.405Z,23.80
2018-07-21T11:12:37.865Z,23.70
2018-07-21T11:15:09.466Z,23.70
2018-07-21T11:17:38.925Z,23.80
2018-07-21T11:20:08.447Z,23.70
2018-07-21T11:22:38.165Z,23.50
2018-07-21T11:27:37.805Z,23.60
2018-07-21T11:30:07.807Z,23.60
2018-07-21T11:32:37.205Z,23.70
2018-07-21T11:35:06.624Z,23.70
2018-07-21T11:37:36.048Z,23.70
2018-07-21T11:40:05.865Z,23.80
2018-07-21T11:42:35.245Z,23.70
2018-07-21T11:45:04.965Z,23.70
2018-07-21T11:47:34.385Z,23.70
2018-07-21T11:50:03.845Z,23.80
2018-07-21T11:52:33.285Z,24.00
2018-07-21T11:55:02.929Z,24.00
2018-07-21T11:57:32.185Z,24.00
2018-07-21T12:00:01.546Z,23.90
2018-07-21T12:04:59.887Z,24.20
2018-07-21T12:07:29.165Z,24.50
2018-07-21T12:09:58.665Z,25.00
2018-07-21T12:12:28.205Z,25.30
2018-07-21T12:14:57.945Z,25.30
2018-07-21T12:17:27.446Z,25.30
2018-07-21T12:19:56.849Z,25.20
2018-07-21T12:22:26.229Z,25.00
2018-07-21T12:24:55.748Z,25.00
2018-07-21T12:27:25.337Z,24.90
2018-07-21T12:29:54.651Z,25.00
2018-07-21T12:32:24.224Z,25.00
2018-07-21T12:34:53.724Z,25.00
2018-07-21T12:37:23.064Z,25.00
2018-07-21T12:39:52.392Z,25.40
2018-07-21T12:42:22.579Z,25.90
2018-07-21T12:44:52.362Z,26.10
2018-07-21T12:47:21.963Z,26.00
2018-07-21T12:49:51.426Z,25.70
2018-07-21T12:52:20.779Z,25.50
2018-07-21T12:54:50.435Z,25.30
2018-07-21T12:57:19.715Z,25.20
2018-07-21T12:59:49.076Z,24.90
2018-07-21T13:02:18.515Z,24.80
2018-07-21T13:04:47.916Z,24.60
2018-07-21T13:07:17.095Z,24.50
2018-07-21T13:09:46.537Z,24.40
2018-07-21T13:12:15.975Z,24.20
2018-07-21T13:14:45.407Z,24.10
2018-07-21T13:17:15.029Z,24.20
2018-07-21T13:19:44.174Z,24.20
2018-07-21T13:22:13.646Z,24.40
2018-07-21T13:24:43.728Z,24.50
2018-07-21T13:27:13.108Z,24.90
2018-07-21T13:29:42.744Z,25.30
2018-07-21T13:32:12.665Z,25.90
2018-07-21T13:34:42.030Z,26.40
2018-07-21T13:37:11.369Z,26.60
2018-07-21T13:39:41.070Z,26.50
2018-07-21T13:42:10.950Z,26.40
2018-07-21T13:44:40.289Z,26.30
2018-07-21T13:47:09.629Z,26.20
2018-07-21T13:49:39.049Z,26.20
2018-07-21T13:52:08.450Z,25.70
2018-07-21T13:57:07.009Z,25.30
2018-07-21T13:59:36.408Z,25.20
2018-07-21T14:02:05.800Z,24.90
2018-07-21T14:04:35.149Z,24.70
2018-07-21T14:09:33.790Z,24.60
2018-07-21T14:12:03.107Z,24.40
2018-07-21T14:14:32.446Z,24.20
2018-07-21T14:17:01.867Z,24.20
2018-07-21T14:19:31.526Z,24.10
2018-07-21T14:22:01.005Z,23.90
2018-07-21T14:24:30.613Z,23.90
2018-07-21T14:26:59.605Z,23.80
2018-07-21T14:29:29.060Z,23.80
2018-07-21T14:31:58.438Z,23.80
2018-07-21T14:34:27.937Z,23.60
2018-07-21T14:36:57.377Z,23.60
2018-07-21T14:39:26.817Z,23.60
2018-07-21T14:41:56.179Z,23.60
2018-07-21T14:44:25.565Z,23.30
2018-07-21T14:46:55.021Z,23.30
2018-07-21T14:49:24.441Z,23.40
2018-07-21T14:51:53.788Z,23.40
2018-07-21T14:54:23.255Z,23.30
2018-07-21T14:56:52.678Z,23.30
2018-07-21T14:59:22.231Z,23.20
2018-07-21T15:01:51.731Z,23.20
2018-07-21T15:04:21.171Z,23.20
2018-07-21T15:06:50.938Z,23.10
2018-07-21T15:09:20.416Z,22.90
2018-07-21T15:11:50.036Z,22.80
2018-07-21T15:14:20.515Z,22.70
2018-07-21T15:16:49.884Z,22.70
2018-07-21T15:19:19.287Z,22.70
2018-07-21T15:21:48.606Z,22.60
2018-07-21T15:24:17.953Z,22.60
2018-07-21T15:26:47.374Z,22.50
2018-07-21T15:29:16.794Z,22.40
2018-07-21T15:31:46.236Z,22.30
2018-07-21T15:34:15.612Z,22.20
2018-07-21T15:36:45.332Z,22.20
2018-07-21T15:39:15.140Z,22.10
2018-07-21T15:41:44.676Z,22.00
2018-07-21T15:44:14.134Z,22.00
2018-07-21T15:46:43.472Z,21.90
2018-07-21T15:49:12.975Z,21.80
2018-07-21T15:51:42.492Z,21.80
2018-07-21T15:54:11.819Z,21.80
2018-07-21T15:56:41.424Z,21.70
2018-07-21T15:59:10.805Z,21.70
2018-07-21T16:01:40.205Z,21.70
2018-07-21T16:04:09.743Z,21.80
2018-07-21T16:06:39.245Z,21.80
2018-07-21T16:09:10.643Z,21.80
2018-07-21T16:11:40.565Z,21.70
2018-07-21T16:14:09.938Z,21.70
2018-07-21T16:16:39.331Z,21.70
2018-07-21T16:19:08.719Z,21.70
2018-07-21T16:21:38.031Z,21.70
2018-07-21T16:24:07.362Z,21.60
2018-07-21T16:26:36.676Z,21.60
2018-07-21T16:29:06.062Z,21.60
2018-07-21T16:31:35.515Z,21.60
2018-07-21T16:34:05.043Z,21.60
2018-07-21T16:36:34.482Z,21.60
2018-07-21T16:39:05.842Z,21.50
2018-07-21T16:41:35.284Z,21.50
2018-07-21T16:44:04.684Z,21.50
2018-07-21T16:49:03.423Z,21.50
2018-07-21T16:51:32.763Z,21.50
2018-07-21T16:54:02.237Z,21.60
2018-07-21T16:56:31.602Z,21.50
2018-07-21T16:59:00.922Z,21.60
2018-07-21T17:01:30.762Z,21.60
2018-07-21T17:04:00.363Z,21.60
2018-07-21T17:06:29.782Z,21.70
2018-07-21T17:08:59.162Z,21.60
2018-07-21T17:11:28.964Z,21.60
2018-07-21T17:13:58.622Z,21.70
2018-07-21T17:16:28.022Z,21.70
2018-07-21T17:18:57.405Z,21.60
2018-07-21T17:21:26.843Z,21.60
2018-07-21T17:23:56.262Z,21.60
2018-07-21T17:26:26.182Z,21.60
2018-07-21T17:28:55.906Z,21.60
2018-07-21T17:31:25.482Z,21.60
2018-07-21T17:33:55.242Z,21.60
2018-07-21T17:36:24.587Z,21.60
2018-07-21T17:38:54.502Z,21.60
2018-07-21T17:41:24.354Z,21.60
2018-07-21T17:43:53.791Z,21.60
2018-07-21T17:46:23.058Z,21.60
2018-07-21T17:48:52.513Z,21.50
2018-07-21T17:51:21.923Z,21.50
2018-07-21T17:53:51.605Z,21.50
2018-07-21T17:56:21.366Z,21.50
2018-07-21T17:58:50.746Z,21.50
2018-07-21T18:01:20.285Z,21.50
2018-07-21T18:03:49.687Z,21.50
2018-07-21T18:06:19.150Z,21.40
2018-07-21T18:08:48.683Z,21.40
2018-07-21T18:11:18.343Z,21.40
2018-07-21T18:13:48.043Z,21.40
2018-07-21T18:16:17.423Z,21.40
2018-07-21T18:18:46.822Z,21.40
2018-07-21T18:21:16.882Z,21.40
2018-07-21T18:23:46.283Z,21.40
2018-07-21T18:26:15.645Z,21.40
2018-07-21T18:28:44.983Z,21.40
2018-07-21T18:31:14.284Z,21.30
2018-07-21T18:33:43.664Z,21.30
2018-07-21T18:36:13.143Z,21.30
2018-07-21T18:38:42.684Z,21.30
2018-07-21T18:41:11.963Z,21.30
2018-07-21T18:43:41.582Z,21.30
2018-07-21T18:46:10.925Z,21.20
2018-07-21T18:48:40.463Z,21.20
2018-07-21T18:51:10.129Z,21.20
2018-07-21T18:53:39.427Z,21.20
2018-07-21T18:56:08.968Z,21.10
2018-07-21T18:58:38.507Z,21.10
2018-07-21T19:01:09.127Z,21.10
2018-07-21T19:03:38.507Z,21.10
2018-07-21T19:06:07.827Z,21.10
2018-07-21T19:08:42.928Z,21.10
2018-07-21T19:11:12.187Z,21.10
2018-07-21T19:13:41.547Z,21.10
2018-07-21T19:16:16.272Z,21.10
2018-07-21T19:18:45.607Z,21.10
2018-07-21T19:21:18.526Z,21.10
2018-07-21T19:23:48.908Z,21.10
2018-07-21T19:26:23.807Z,21.00
2018-07-21T19:28:53.408Z,21.00
2018-07-21T19:31:22.807Z,21.00
2018-07-21T19:33:52.207Z,21.00
2018-07-21T19:36:21.567Z,21.00
2018-07-21T19:38:50.889Z,21.00
2018-07-21T19:43:54.787Z,21.00
2018-07-21T19:46:24.207Z,20.90
2018-07-21T19:48:53.630Z,21.00
2018-07-21T19:51:22.896Z,20.90
2018-07-21T19:53:52.511Z,20.90
2018-07-21T19:56:21.787Z,20.90
2018-07-21T19:58:51.148Z,20.90
2018-07-21T20:01:20.487Z,20.90
2018-07-21T20:03:49.770Z,20.90
2018-07-21T20:06:19.348Z,20.90
2018-07-21T20:08:48.927Z,20.90
2018-07-21T20:11:18.514Z,20.90
2018-07-21T20:13:48.141Z,20.90
2018-07-21T20:16:17.607Z,20.80
2018-07-21T20:18:47.007Z,20.80
2018-07-21T20:21:16.416Z,20.80
2018-07-21T20:23:45.787Z,20.70
2018-07-21T20:26:15.027Z,20.70
2018-07-21T20:28:44.467Z,20.70
2018-07-21T20:31:13.847Z,20.70
2018-07-21T20:33:43.187Z,20.70
2018-07-21T20:36:12.507Z,20.70
2018-07-21T20:38:41.729Z,20.70
2018-07-21T20:41:11.147Z,20.70
2018-07-21T20:43:40.588Z,20.80
2018-07-21T20:46:09.988Z,20.80
2018-07-21T20:48:39.347Z,20.80
2018-07-21T20:51:09.267Z,20.80
2018-07-21T20:53:38.870Z,20.90
2018-07-21T20:56:08.388Z,20.90
2018-07-21T21:01:07.152Z,20.90
2018-07-21T21:03:36.596Z,20.90
2018-07-21T21:06:06.188Z,20.90
2018-07-21T21:08:35.517Z,20.80
2018-07-21T21:11:04.839Z,20.80
2018-07-21T21:13:34.140Z,20.80
2018-07-21T21:16:03.458Z,20.80
2018-07-21T21:18:33.317Z,20.70
2018-07-21T21:21:02.697Z,20.70
2018-07-21T21:23:32.017Z,20.70
2018-07-21T21:26:01.677Z,20.70
2018-07-21T21:28:31.597Z,20.70
2018-07-21T21:31:01.034Z,20.70
2018-07-21T21:35:59.597Z,20.70
2018-07-21T21:38:29.237Z,20.70
2018-07-21T21:40:58.877Z,20.70
2018-07-21T21:43:28.237Z,20.70
2018-07-21T21:45:57.657Z,20.60
2018-07-21T21:53:25.196Z,20.60
2018-07-21T21:55:55.117Z,20.60
2018-07-21T21:58:24.477Z,20.60
2018-07-21T22:01:09.924Z,20.60
2018-07-21T22:03:39.437Z,20.60
2018-07-21T22:06:08.834Z,20.60
2018-07-21T22:08:38.317Z,20.60
2018-07-21T22:11:07.712Z,20.60
2018-07-21T22:13:37.405Z,20.60
2018-07-21T22:16:07.025Z,20.60
2018-07-21T22:18:36.826Z,20.60
2018-07-21T22:21:06.465Z,20.50
2018-07-21T22:23:35.965Z,20.50
2018-07-21T22:26:05.685Z,20.50
2018-07-21T22:31:04.687Z,20.30
2018-07-21T22:33:34.025Z,20.30
2018-07-21T22:36:03.485Z,20.30
2018-07-21T22:38:32.826Z,20.20
2018-07-21T22:41:02.165Z,20.20
2018-07-21T22:43:31.566Z,20.20
2018-07-21T22:46:00.908Z,20.20
2018-07-21T22:48:30.285Z,20.10
2018-07-21T22:50:59.705Z,20.10
2018-07-21T22:53:29.046Z,20.10
2018-07-21T22:55:58.425Z,20.10
2018-07-21T22:58:27.845Z,20.10
2018-07-21T23:00:57.213Z,20.10
2018-07-21T23:03:26.590Z,20.10
2018-07-21T23:05:56.029Z,20.10
2018-07-21T23:08:25.346Z,20.10
2018-07-21T23:10:54.372Z,20.10
2018-07-21T23:13:23.359Z,20.00
2018-07-21T23:15:52.769Z,20.00
2018-07-21T23:18:22.129Z,20.00
2018-07-21T23:20:51.489Z,20.00
2018-07-21T23:23:20.909Z,20.00
2018-07-21T23:25:50.392Z,20.00
2018-07-21T23:28:19.729Z,19.90
2018-07-21T23:30:49.322Z,19.90
2018-07-21T23:33:18.869Z,19.90
2018-07-21T23:35:48.409Z,19.90
2018-07-21T23:38:17.869Z,19.90
2018-07-21T23:40:47.509Z,19.90
2018-07-21T23:43:16.884Z,19.90
2018-07-21T23:45:46.376Z,19.80
2018-07-21T23:48:15.869Z,19.90
2018-07-21T23:50:45.168Z,19.80
2018-07-21T23:53:14.649Z,19.80
2018-07-21T23:55:44.136Z,19.80
2018-07-21T23:58:13.449Z,19.80
